Time;durP1;ratioP1;P1;durP2;ratioP2;P2;SDS_P1;SDS_P2;PMS_P1;PMS_P2;Temp;Humidity;BMP_temperature;BMP_pressure;BME280_temperature;BME280_humidity;BME280_pressure;Samples;Min_cycle;Max_cycle;Signal;HPM_P1;HPM_P2
2021/06/03 07:51:45;;;;;;;18.38;8.93;;;23.70;99.40;;;;;;12172366;27;20379;-74
2021/06/03 07:57:31;;;;;;;15.07;8.02;;;24.20;98.90;;;;;;12099093;27;20071;-75
2021/06/03 08:03:18;;;;;;;18.35;8.75;;;24.90;96.50;;;;;;12097409;27;20050;-74
2021/06/03 08:09:06;;;;;;;13.18;8.10;;;25.30;93.50;;;;;;12102742;28;20063;-74
2021/06/03 08:14:52;;;;;;;14.68;7.63;;;25.60;92.20;;;;;;12099793;27;20052;-74
2021/06/03 08:20:41;;;;;;;13.35;8.30;;;25.90;91.20;;;;;;12100952;27;20052;-73
2021/06/03 08:26:29;;;;;;;15.90;8.15;;;26.00;90.20;;;;;;12100126;28;20585;-73
2021/06/03 08:32:15;;;;;;;15.95;7.97;;;26.10;89.40;;;;;;12102051;27;20056;-73
2021/06/03 08:38:04;;;;;;;17.73;8.25;;;26.30;87.10;;;;;;12103258;28;20051;-74
2021/06/03 08:43:52;;;;;;;15.57;7.50;;;26.30;87.60;;;;;;12101196;28;20079;-74
2021/06/03 08:49:39;;;;;;;14.93;7.43;;;26.30;89.50;;;;;;12101039;28;20044;-73
2021/06/03 09:01:33;;;;;;;16.85;7.47;;;26.40;88.00;;;;;;12052792;28;20084;-74
2021/06/03 09:07:34;;;;;;;22.00;8.48;;;26.50;87.80;;;;;;12068129;28;20092;-75
2021/06/03 09:13:23;;;;;;;14.90;7.90;;;26.80;86.60;;;;;;12064937;28;20044;-75
2021/06/03 09:19:13;;;;;;;15.77;8.10;;;27.10;86.20;;;;;;12074683;28;20071;-74
2021/06/03 09:24:59;;;;;;;13.98;8.25;;;27.20;84.30;;;;;;12074125;28;20109;-74
2021/06/03 09:30:57;;;;;;;16.10;8.05;;;27.40;82.80;;;;;;12069887;28;20052;-74
2021/06/03 09:36:47;;;;;;;15.95;7.72;;;27.50;83.20;;;;;;12070944;28;20056;-73
2021/06/03 09:42:33;;;;;;;12.82;7.95;;;27.30;80.30;;;;;;12066563;27;20048;-73
2021/06/03 09:48:36;;;;;;;16.67;8.05;;;27.20;81.10;;;;;;12075171;28;20056;-73
2021/06/03 09:54:25;;;;;;;14.88;7.78;;;27.20;80.80;;;;;;12069271;28;20043;-74
2021/06/03 10:00:15;;;;;;;16.95;8.75;;;27.30;82.00;;;;;;12050814;28;20048;-73
2021/06/03 10:06:02;;;;;;;15.10;7.97;;;27.20;80.10;;;;;;12068055;28;20097;-74
2021/06/03 10:11:49;;;;;;;12.45;7.63;;;27.10;81.10;;;;;;12066937;28;20487;-74
2021/06/03 10:17:38;;;;;;;14.25;7.38;;;27.50;80.60;;;;;;12065060;28;20052;-77
2021/06/03 10:23:28;;;;;;;14.30;7.50;;;27.80;78.20;;;;;;12066754;28;21064;-76
2021/06/03 10:29:16;;;;;;;11.10;6.60;;;27.70;76.00;;;;;;12063734;28;20102;-76
2021/06/03 10:35:06;;;;;;;12.07;7.00;;;27.70;77.70;;;;;;12059551;28;20473;-75
2021/06/03 10:40:56;;;;;;;14.07;6.97;;;27.80;75.90;;;;;;12060153;28;20049;-76
2021/06/03 10:46:45;;;;;;;15.75;7.72;;;27.70;76.60;;;;;;12062239;28;20109;-75
2021/06/03 10:52:32;;;;;;;18.27;6.85;;;27.70;76.90;;;;;;12064192;28;20411;-74
2021/06/03 10:58:30;;;;;;;11.80;6.50;;;28.10;76.70;;;;;;12063752;28;20105;-74
2021/06/03 11:04:27;;;;;;;13.10;6.07;;;28.30;74.80;;;;;;12064545;28;20070;-74
2021/06/03 11:10:24;;;;;;;9.10;5.35;;;28.40;71.80;;;;;;12062460;28;20110;-74
2021/06/03 11:16:12;;;;;;;11.20;5.63;;;28.50;71.10;;;;;;12038975;28;20075;-74
2021/06/03 11:22:02;;;;;;;14.48;5.88;;;28.60;70.90;;;;;;12057640;28;20422;-74
2021/06/03 11:27:49;;;;;;;12.50;6.60;;;28.70;70.50;;;;;;12060570;28;20044;-75
2021/06/03 11:34:05;;;;;;;9.63;5.38;;;28.70;70.10;;;;;;12067381;28;20052;-73
2021/06/03 11:39:55;;;;;;;10.05;5.85;;;28.70;70.40;;;;;;12058779;28;20057;-75
2021/06/03 11:45:46;;;;;;;9.32;5.97;;;28.60;71.10;;;;;;12044567;28;20063;-74
2021/06/03 11:51:32;;;;;;;8.52;5.63;;;28.70;70.60;;;;;;12068698;28;20062;-75
2021/06/03 11:57:21;;;;;;;12.95;6.35;;;28.70;69.30;;;;;;12062305;28;20108;-75
2021/06/03 12:03:24;;;;;;;12.00;5.80;;;28.70;69.70;;;;;;12060545;28;20056;-75
2021/06/03 12:09:32;;;;;;;14.63;5.93;;;28.80;69.90;;;;;;12059176;28;20060;-74
2021/06/03 12:15:21;;;;;;;16.05;6.00;;;28.90;69.20;;;;;;12054720;28;20052;-74
2021/06/03 12:21:11;;;;;;;9.02;5.40;;;28.90;69.20;;;;;;12062058;28;20558;-75
2021/06/03 12:27:00;;;;;;;11.77;5.40;;;29.10;69.00;;;;;;12062158;28;20068;-75
2021/06/03 12:33:01;;;;;;;10.35;5.47;;;29.50;67.90;;;;;;12050433;28;20514;-75
2021/06/03 12:38:49;;;;;;;15.15;6.47;;;29.70;66.40;;;;;;12061601;28;20063;-74
2021/06/03 12:44:36;;;;;;;8.93;5.10;;;29.80;65.50;;;;;;12069600;28;20498;-74
2021/06/03 12:50:23;;;;;;;8.05;5.47;;;29.70;66.30;;;;;;12067214;28;20055;-74
2021/06/03 12:56:11;;;;;;;7.78;4.47;;;29.40;65.60;;;;;;12066943;28;20071;-74
2021/06/03 13:01:59;;;;;;;10.27;4.80;;;29.50;65.10;;;;;;12056116;28;20048;-73
2021/06/03 13:07:47;;;;;;;10.02;4.90;;;29.70;64.70;;;;;;12067712;28;20414;-76
2021/06/03 13:13:34;;;;;;;9.18;5.00;;;29.60;65.30;;;;;;12071844;28;20048;-73
2021/06/03 13:19:24;;;;;;;6.25;4.57;;;29.70;65.30;;;;;;12064999;28;20052;-75
2021/06/03 13:25:11;;;;;;;8.10;4.80;;;29.70;64.30;;;;;;12071717;28;20044;-74
2021/06/03 13:30:59;;;;;;;8.98;4.95;;;29.70;63.80;;;;;;12046532;28;20059;-73
2021/06/03 13:36:57;;;;;;;11.70;5.50;;;29.50;64.90;;;;;;12062354;28;20056;-74
2021/06/03 13:42:47;;;;;;;10.30;5.13;;;29.40;66.70;;;;;;12066612;27;20052;-74
2021/06/03 13:48:39;;;;;;;10.15;5.82;;;29.40;67.60;;;;;;12066395;28;20052;-74
2021/06/03 13:54:25;;;;;;;7.60;5.15;;;29.10;67.70;;;;;;12067803;28;20055;-74
2021/06/03 14:00:27;;;;;;;11.40;5.28;;;29.20;67.80;;;;;;12064680;28;20055;-74
2021/06/03 14:06:15;;;;;;;8.75;4.70;;;29.20;67.30;;;;;;12065762;28;20064;-74
2021/06/03 14:12:12;;;;;;;9.43;5.10;;;29.40;65.00;;;;;;12048421;28;20051;-73
2021/06/03 14:18:03;;;;;;;8.02;4.55;;;29.70;65.80;;;;;;12066111;28;20068;-74
2021/06/03 14:23:52;;;;;;;14.07;5.57;;;29.90;64.30;;;;;;12065873;28;20060;-74
2021/06/03 14:29:53;;;;;;;7.78;4.60;;;29.90;66.00;;;;;;12063662;28;20094;-75
2021/06/03 14:35:46;;;;;;;10.02;5.18;;;29.70;65.30;;;;;;12066276;28;20052;-75
2021/06/03 14:41:42;;;;;;;8.95;4.90;;;29.50;66.30;;;;;;12062823;28;20071;-74
2021/06/03 14:47:29;;;;;;;10.60;4.43;;;29.50;66.60;;;;;;12058099;28;20078;-74
2021/06/03 14:53:29;;;;;;;6.47;4.60;;;29.80;65.10;;;;;;12058260;28;20056;-75
2021/06/03 14:59:15;;;;;;;10.30;4.80;;;29.90;64.70;;;;;;12063697;28;20056;-75
2021/06/03 15:05:02;;;;;;;7.70;4.50;;;29.90;64.40;;;;;;12068950;28;20403;-76
2021/06/03 15:10:50;;;;;;;5.97;4.32;;;30.20;63.80;;;;;;12060111;28;20048;-75
2021/06/03 15:16:38;;;;;;;9.25;4.63;;;30.50;63.20;;;;;;12060481;28;20066;-74
2021/06/03 15:22:25;;;;;;;6.75;4.35;;;31.30;61.40;;;;;;12045944;28;20055;-76
2021/06/03 15:28:13;;;;;;;6.80;4.22;;;31.90;58.80;;;;;;12066290;28;20469;-75
2021/06/03 15:33:59;;;;;;;7.70;4.22;;;32.20;58.90;;;;;;12065960;28;20059;-75
2021/06/03 15:39:46;;;;;;;6.68;4.68;;;31.90;58.80;;;;;;12059383;28;20037;-75
2021/06/03 15:45:34;;;;;;;5.78;4.10;;;32.50;58.70;;;;;;12063026;27;20036;-75
2021/06/03 15:51:20;;;;;;;7.00;4.22;;;33.00;57.30;;;;;;12044407;28;20058;-76
2021/06/03 15:57:09;;;;;;;6.25;3.78;;;33.20;55.50;;;;;;12060633;28;20040;-75
2021/06/03 16:02:58;;;;;;;6.57;3.78;;;33.50;56.20;;;;;;12033700;28;20052;-75
2021/06/03 16:08:44;;;;;;;11.25;4.70;;;33.60;55.30;;;;;;12060565;28;20040;-75
2021/06/03 16:14:31;;;;;;;7.25;4.43;;;32.60;55.30;;;;;;12068873;28;20079;-75
2021/06/03 16:20:21;;;;;;;9.07;4.70;;;31.50;58.10;;;;;;12074734;28;20431;-75
2021/06/03 16:26:08;;;;;;;13.38;4.55;;;30.70;60.60;;;;;;12077740;28;20388;-74
2021/06/03 16:31:54;;;;;;;7.82;4.68;;;30.00;62.60;;;;;;12074189;28;20044;-74
2021/06/03 16:37:42;;;;;;;22.80;6.13;;;29.40;65.50;;;;;;12076312;28;20044;-75
2021/06/03 16:43:28;;;;;;;16.17;7.95;;;28.10;77.40;;;;;;12070795;28;20052;-75
2021/06/03 16:49:15;;;;;;;16.05;7.60;;;26.40;92.10;;;;;;12072955;28;20707;-77
2021/06/03 16:55:04;;;;;;;17.58;8.57;;;26.20;95.70;;;;;;12067602;28;20048;-76
2021/06/03 17:00:52;;;;;;;15.63;7.63;;;26.40;98.00;;;;;;12076192;28;20048;-75
2021/06/03 17:06:39;;;;;;;16.90;8.20;;;26.60;98.10;;;;;;12068622;28;20053;-75
2021/06/03 17:12:26;;;;;;;12.77;6.90;;;27.50;96.40;;;;;;12052334;28;20123;-76
2021/06/03 17:18:13;;;;;;;8.52;4.88;;;28.80;96.90;;;;;;12070047;28;20102;-76
2021/06/03 17:23:59;;;;;;;8.45;4.72;;;30.10;85.80;;;;;;12073346;28;20052;-75
2021/06/03 17:29:47;;;;;;;5.15;4.28;;;30.80;77.80;;;;;;12070120;28;20142;-76
2021/06/03 17:35:34;;;;;;;8.07;4.45;;;31.20;78.70;;;;;;12069812;28;20060;-76
2021/06/03 17:41:25;;;;;;;5.40;3.67;;;32.50;74.30;;;;;;12064851;28;20060;-73
2021/06/03 17:47:13;;;;;;;8.43;4.10;;;34.60;63.90;;;;;;12072556;28;20056;-74
2021/06/03 17:53:05;;;;;;;5.40;3.10;;;35.00;61.30;;;;;;12072747;28;20047;-75
2021/06/03 17:58:51;;;;;;;5.67;2.87;;;35.60;58.10;;;;;;12088482;28;20139;-74
2021/06/03 18:04:39;;;;;;;2.85;2.30;;;35.50;56.90;;;;;;12089389;28;20058;-74
2021/06/03 18:10:26;;;;;;;3.78;2.20;;;35.40;55.40;;;;;;12082265;28;20063;-74
2021/06/03 18:16:13;;;;;;;6.30;2.88;;;35.80;53.20;;;;;;12074248;28;20044;-74
2021/06/03 18:22:00;;;;;;;2.40;1.90;;;35.30;51.80;;;;;;12050516;28;20055;-74
2021/06/03 18:27:48;;;;;;;5.05;2.28;;;34.50;52.60;;;;;;12053115;28;20040;-75
2021/06/03 18:33:34;;;;;;;3.08;2.50;;;34.20;53.90;;;;;;12067192;28;20051;-74
2021/06/03 18:39:22;;;;;;;4.97;2.42;;;34.10;55.20;;;;;;12064770;28;20045;-74
2021/06/03 18:45:13;;;;;;;5.00;2.60;;;34.30;56.10;;;;;;12064410;28;20056;-74
2021/06/03 18:50:59;;;;;;;6.82;4.55;;;34.60;56.60;;;;;;12059850;28;20139;-76
2021/06/03 18:56:49;;;;;;;2.17;1.92;;;34.30;58.50;;;;;;12066050;28;20052;-74
2021/06/03 19:02:35;;;;;;;3.70;2.40;;;33.70;58.90;;;;;;12060852;28;20070;-74
2021/06/03 19:08:22;;;;;;;4.60;2.63;;;33.20;59.60;;;;;;12052002;28;20045;-75
2021/06/03 19:14:10;;;;;;;2.35;2.10;;;32.10;61.50;;;;;;12061018;28;20048;-75
2021/06/03 19:19:56;;;;;;;3.63;2.25;;;30.60;65.90;;;;;;12063640;28;20086;-74
2021/06/03 19:25:43;;;;;;;5.93;2.45;;;29.60;70.60;;;;;;12064880;28;20045;-75
2021/06/03 19:31:31;;;;;;;5.70;2.63;;;28.90;72.70;;;;;;12065906;28;20044;-76
2021/06/03 19:37:17;;;;;;;2.95;2.60;;;28.40;75.10;;;;;;12065087;28;20066;-74
2021/06/03 19:43:04;;;;;;;4.57;2.88;;;28.00;76.70;;;;;;12070912;28;20557;-75
2021/06/03 19:48:52;;;;;;;4.68;2.80;;;27.60;78.50;;;;;;12067820;28;20112;-75
2021/06/03 19:54:38;;;;;;;3.20;2.90;;;27.30;78.00;;;;;;12059425;28;20514;-75
2021/06/03 20:00:27;;;;;;;6.75;3.08;;;26.90;79.80;;;;;;12048575;28;20102;-75
2021/06/03 20:06:16;;;;;;;7.30;3.30;;;26.60;80.80;;;;;;12060912;28;20053;-75
2021/06/03 20:12:02;;;;;;;6.82;3.35;;;26.50;82.00;;;;;;12062169;28;20052;-74
2021/06/03 20:17:49;;;;;;;7.25;3.90;;;26.40;82.10;;;;;;12061545;28;20048;-75
2021/06/03 20:23:37;;;;;;;5.32;3.70;;;26.30;82.80;;;;;;12064669;28;20056;-75
2021/06/03 20:29:23;;;;;;;7.68;4.50;;;26.20;83.60;;;;;;12063627;28;20324;-75
2021/06/03 20:35:12;;;;;;;6.22;3.95;;;26.20;84.10;;;;;;12063285;28;20056;-75
2021/06/03 20:41:01;;;;;;;6.30;3.95;;;26.10;84.80;;;;;;12067620;28;20048;-80
2021/06/03 20:46:48;;;;;;;7.55;4.30;;;25.90;84.80;;;;;;12065668;28;20056;-79
2021/06/03 20:52:34;;;;;;;7.75;4.10;;;25.80;85.80;;;;;;12070627;28;20048;-79
2021/06/03 20:58:23;;;;;;;7.30;4.32;;;25.80;86.00;;;;;;12068032;28;20047;-79
2021/06/03 21:04:09;;;;;;;7.80;4.10;;;25.70;86.10;;;;;;12061385;28;20056;-80
2021/06/03 21:09:55;;;;;;;5.85;4.10;;;25.70;85.70;;;;;;12072253;28;20069;-79
2021/06/03 21:15:45;;;;;;;7.88;4.82;;;25.60;86.20;;;;;;12066869;28;20062;-78
2021/06/03 21:21:32;;;;;;;6.22;4.20;;;25.50;87.70;;;;;;12071059;28;20074;-82
2021/06/03 21:27:18;;;;;;;8.88;4.90;;;25.50;87.40;;;;;;12068862;28;20063;-79
2021/06/03 21:33:08;;;;;;;8.25;4.40;;;25.40;86.00;;;;;;12074184;28;20063;-79
2021/06/03 21:38:54;;;;;;;5.80;4.57;;;25.20;87.60;;;;;;12069948;28;20040;-79
2021/06/03 21:44:40;;;;;;;9.32;5.00;;;25.20;88.10;;;;;;12068101;28;20566;-80
2021/06/03 21:50:28;;;;;;;7.32;4.53;;;25.20;88.00;;;;;;12069816;28;20434;-79
2021/06/03 21:56:15;;;;;;;9.73;4.97;;;25.20;88.30;;;;;;12070194;28;20056;-80
2021/06/03 22:02:03;;;;;;;9.73;4.80;;;25.10;89.10;;;;;;12073902;28;20051;-79
2021/06/03 22:07:51;;;;;;;8.00;4.57;;;25.10;88.20;;;;;;12053512;28;20052;-80
2021/06/03 22:13:40;;;;;;;7.32;4.72;;;25.00;89.00;;;;;;12068199;28;20067;-80
2021/06/03 22:19:26;;;;;;;7.78;3.95;;;25.00;88.10;;;;;;12069093;28;20056;-80
2021/06/03 22:25:18;;;;;;;9.82;4.95;;;24.90;88.90;;;;;;12052648;28;20053;-80
2021/06/03 22:31:05;;;;;;;7.07;4.70;;;24.90;89.50;;;;;;12072192;28;20060;-81
2021/06/03 22:36:51;;;;;;;8.50;4.70;;;24.90;88.80;;;;;;12070266;28;20049;-80
2021/06/03 22:42:40;;;;;;;11.23;4.72;;;24.80;88.40;;;;;;12071810;28;20048;-80
2021/06/03 22:48:30;;;;;;;16.73;4.88;;;24.80;89.70;;;;;;12091474;28;20051;-80
2021/06/03 22:54:21;;;;;;;11.95;4.63;;;24.60;89.70;;;;;;12105444;28;20053;-81
2021/06/03 23:00:13;;;;;;;7.45;4.28;;;24.60;89.60;;;;;;12061114;28;20056;-80
2021/06/03 23:06:00;;;;;;;9.20;4.45;;;24.40;90.00;;;;;;12065101;28;20051;-80
2021/06/03 23:11:49;;;;;;;10.63;4.82;;;24.40;90.10;;;;;;12072289;28;20606;-80
2021/06/03 23:17:36;;;;;;;7.75;3.95;;;24.40;90.30;;;;;;12064998;28;20051;-80
